sensor_id;sensor_type;location;lat;lon;timestamp;P1;durP1;ratioP1;P2;durP2;ratioP2
72728;SDS011;60843;52.062;4.508;2023-05-09T00:00:35;40.03;;;20.43;;
72728;SDS011;60843;52.062;4.508;2023-05-09T00:03:01;41.03;;;19.45;;
72728;SDS011;60843;52.062;4.508;2023-05-09T00:05:29;40.35;;;21.10;;
72728;SDS011;60843;52.062;4.508;2023-05-09T00:07:55;37.42;;;18.27;;
72728;SDS011;60843;52.062;4.508;2023-05-09T00:10:21;39.40;;;19.25;;
72728;SDS011;60843;52.062;4.508;2023-05-09T00:12:46;33.92;;;17.52;;
72728;SDS011;60843;52.062;4.508;2023-05-09T00:15:31;34.88;;;16.90;;
72728;SDS011;60843;52.062;4.508;2023-05-09T00:17:57;34.80;;;16.70;;
72728;SDS011;60843;52.062;4.508;2023-05-09T00:20:22;32.85;;;16.10;;
72728;SDS011;60843;52.062;4.508;2023-05-09T00:22:48;36.20;;;15.48;;
72728;SDS011;60843;52.062;4.508;2023-05-09T00:25:13;33.60;;;16.15;;
72728;SDS011;60843;52.062;4.508;2023-05-09T00:27:38;30.13;;;16.30;;
72728;SDS011;60843;52.062;4.508;2023-05-09T00:30:04;32.35;;;14.23;;
72728;SDS011;60843;52.062;4.508;2023-05-09T00:32:31;30.77;;;14.93;;
72728;SDS011;60843;52.062;4.508;2023-05-09T00:34:57;27.02;;;14.07;;
72728;SDS011;60843;52.062;4.508;2023-05-09T00:37:23;31.73;;;15.30;;
72728;SDS011;60843;52.062;4.508;2023-05-09T00:39:49;29.10;;;15.07;;
72728;SDS011;60843;52.062;4.508;2023-05-09T00:42:14;27.67;;;14.97;;
72728;SDS011;60843;52.062;4.508;2023-05-09T00:44:40;32.97;;;14.73;;
72728;SDS011;60843;52.062;4.508;2023-05-09T00:47:06;32.03;;;14.83;;
72728;SDS011;60843;52.062;4.508;2023-05-09T00:49:31;35.10;;;15.43;;
72728;SDS011;60843;52.062;4.508;2023-05-09T00:51:58;28.98;;;14.77;;
72728;SDS011;60843;52.062;4.508;2023-05-09T00:54:25;31.95;;;14.30;;
72728;SDS011;60843;52.062;4.508;2023-05-09T00:56:50;26.75;;;14.10;;
72728;SDS011;60843;52.062;4.508;2023-05-09T00:59:16;31.10;;;14.43;;
72728;SDS011;60843;52.062;4.508;2023-05-09T01:01:42;31.08;;;14.35;;
72728;SDS011;60843;52.062;4.508;2023-05-09T01:04:07;27.67;;;14.00;;
72728;SDS011;60843;52.062;4.508;2023-05-09T01:06:37;30.57;;;14.00;;
72728;SDS011;60843;52.062;4.508;2023-05-09T01:19:59;30.60;;;13.73;;
72728;SDS011;60843;52.062;4.508;2023-05-09T01:22:35;23.98;;;12.57;;
72728;SDS011;60843;52.062;4.508;2023-05-09T01:30:32;22.85;;;12.50;;
72728;SDS011;60843;52.062;4.508;2023-05-09T01:32:59;24.15;;;11.77;;
72728;SDS011;60843;52.062;4.508;2023-05-09T01:35:25;26.40;;;12.88;;
72728;SDS011;60843;52.062;4.508;2023-05-09T01:37:51;28.85;;;13.13;;
72728;SDS011;60843;52.062;4.508;2023-05-09T01:40:18;23.00;;;11.63;;
72728;SDS011;60843;52.062;4.508;2023-05-09T01:42:54;26.95;;;12.20;;
72728;SDS011;60843;52.062;4.508;2023-05-09T01:45:21;24.50;;;12.07;;
72728;SDS011;60843;52.062;4.508;2023-05-09T01:47:48;22.27;;;11.68;;
72728;SDS011;60843;52.062;4.508;2023-05-09T01:50:13;26.77;;;11.88;;
72728;SDS011;60843;52.062;4.508;2023-05-09T01:52:41;27.27;;;12.45;;
72728;SDS011;60843;52.062;4.508;2023-05-09T01:55:07;23.83;;;11.25;;
72728;SDS011;60843;52.062;4.508;2023-05-09T01:57:35;19.25;;;10.65;;
72728;SDS011;60843;52.062;4.508;2023-05-09T02:00:01;21.65;;;11.38;;
72728;SDS011;60843;52.062;4.508;2023-05-09T02:02:27;25.45;;;11.88;;
72728;SDS011;60843;52.062;4.508;2023-05-09T02:04:55;24.85;;;11.35;;
72728;SDS011;60843;52.062;4.508;2023-05-09T02:07:24;27.08;;;11.82;;
72728;SDS011;60843;52.062;4.508;2023-05-09T02:09:50;22.35;;;11.57;;
72728;SDS011;60843;52.062;4.508;2023-05-09T02:12:18;17.25;;;10.02;;
72728;SDS011;60843;52.062;4.508;2023-05-09T02:14:43;22.27;;;11.35;;
72728;SDS011;60843;52.062;4.508;2023-05-09T02:17:12;19.50;;;10.67;;
72728;SDS011;60843;52.062;4.508;2023-05-09T02:19:41;24.10;;;10.90;;
72728;SDS011;60843;52.062;4.508;2023-05-09T02:22:06;21.83;;;10.90;;
72728;SDS011;60843;52.062;4.508;2023-05-09T02:24:34;24.30;;;11.30;;
72728;SDS011;60843;52.062;4.508;2023-05-09T02:27:00;24.58;;;10.20;;
72728;SDS011;60843;52.062;4.508;2023-05-09T02:29:50;21.67;;;10.57;;
72728;SDS011;60843;52.062;4.508;2023-05-09T02:32:18;19.27;;;10.45;;
72728;SDS011;60843;52.062;4.508;2023-05-09T02:34:46;20.45;;;10.73;;
72728;SDS011;60843;52.062;4.508;2023-05-09T02:37:13;21.83;;;10.32;;
72728;SDS011;60843;52.062;4.508;2023-05-09T02:39:39;19.52;;;9.88;;
72728;SDS011;60843;52.062;4.508;2023-05-09T02:42:08;18.10;;;9.48;;
72728;SDS011;60843;52.062;4.508;2023-05-09T02:44:34;20.73;;;9.40;;
72728;SDS011;60843;52.062;4.508;2023-05-09T02:47:04;19.10;;;9.38;;
72728;SDS011;60843;52.062;4.508;2023-05-09T02:49:30;20.92;;;9.48;;
72728;SDS011;60843;52.062;4.508;2023-05-09T02:51:56;24.08;;;9.50;;
72728;SDS011;60843;52.062;4.508;2023-05-09T02:54:21;19.93;;;9.33;;
72728;SDS011;60843;52.062;4.508;2023-05-09T02:56:46;18.58;;;9.18;;
72728;SDS011;60843;52.062;4.508;2023-05-09T02:59:12;19.80;;;9.87;;
72728;SDS011;60843;52.062;4.508;2023-05-09T03:01:37;17.30;;;9.70;;
72728;SDS011;60843;52.062;4.508;2023-05-09T03:04:03;19.27;;;9.47;;
72728;SDS011;60843;52.062;4.508;2023-05-09T03:06:28;17.83;;;9.93;;
72728;SDS011;60843;52.062;4.508;2023-05-09T03:08:53;20.33;;;9.37;;
72728;SDS011;60843;52.062;4.508;2023-05-09T03:11:19;19.80;;;10.00;;
72728;SDS011;60843;52.062;4.508;2023-05-09T03:13:45;21.73;;;9.70;;
72728;SDS011;60843;52.062;4.508;2023-05-09T03:16:12;19.83;;;9.75;;
72728;SDS011;60843;52.062;4.508;2023-05-09T03:18:41;19.40;;;9.23;;
72728;SDS011;60843;52.062;4.508;2023-05-09T03:21:06;21.37;;;10.43;;
72728;SDS011;60843;52.062;4.508;2023-05-09T03:23:34;18.83;;;9.33;;
72728;SDS011;60843;52.062;4.508;2023-05-09T03:25:59;18.73;;;10.35;;
72728;SDS011;60843;52.062;4.508;2023-05-09T03:28:25;21.75;;;10.57;;
72728;SDS011;60843;52.062;4.508;2023-05-09T03:30:51;18.98;;;11.00;;
72728;SDS011;60843;52.062;4.508;2023-05-09T03:33:17;26.10;;;10.85;;
72728;SDS011;60843;52.062;4.508;2023-05-09T03:35:42;22.03;;;11.27;;
72728;SDS011;60843;52.062;4.508;2023-05-09T03:38:07;22.83;;;10.13;;
72728;SDS011;60843;52.062;4.508;2023-05-09T03:40:33;21.77;;;11.07;;
72728;SDS011;60843;52.062;4.508;2023-05-09T03:42:59;22.13;;;10.52;;
72728;SDS011;60843;52.062;4.508;2023-05-09T03:45:25;30.20;;;11.63;;
72728;SDS011;60843;52.062;4.508;2023-05-09T03:47:51;25.65;;;11.40;;
72728;SDS011;60843;52.062;4.508;2023-05-09T03:50:16;19.60;;;10.23;;
72728;SDS011;60843;52.062;4.508;2023-05-09T03:52:47;20.63;;;10.77;;
72728;SDS011;60843;52.062;4.508;2023-05-09T03:55:12;17.55;;;10.00;;
72728;SDS011;60843;52.062;4.508;2023-05-09T03:57:38;20.97;;;11.00;;
72728;SDS011;60843;52.062;4.508;2023-05-09T04:00:03;23.38;;;11.10;;
72728;SDS011;60843;52.062;4.508;2023-05-09T04:02:31;22.95;;;10.02;;
72728;SDS011;60843;52.062;4.508;2023-05-09T04:05:01;21.80;;;10.48;;
72728;SDS011;60843;52.062;4.508;2023-05-09T04:07:28;20.38;;;10.63;;
72728;SDS011;60843;52.062;4.508;2023-05-09T04:09:54;20.55;;;10.10;;
72728;SDS011;60843;52.062;4.508;2023-05-09T04:12:22;22.98;;;11.05;;
72728;SDS011;60843;52.062;4.508;2023-05-09T04:14:47;20.52;;;10.18;;
72728;SDS011;60843;52.062;4.508;2023-05-09T04:17:13;21.67;;;10.13;;
72728;SDS011;60843;52.062;4.508;2023-05-09T04:19:38;22.92;;;11.07;;
72728;SDS011;60843;52.062;4.508;2023-05-09T04:22:04;23.42;;;11.05;;
72728;SDS011;60843;52.062;4.508;2023-05-09T04:24:29;23.90;;;10.93;;
72728;SDS011;60843;52.062;4.508;2023-05-09T04:26:55;19.23;;;9.43;;
72728;SDS011;60843;52.062;4.508;2023-05-09T04:29:20;27.70;;;10.45;;
72728;SDS011;60843;52.062;4.508;2023-05-09T04:31:46;21.63;;;10.43;;
72728;SDS011;60843;52.062;4.508;2023-05-09T04:34:11;21.77;;;9.93;;
72728;SDS011;60843;52.062;4.508;2023-05-09T04:36:37;20.95;;;11.07;;
72728;SDS011;60843;52.062;4.508;2023-05-09T04:39:02;21.10;;;10.23;;
72728;SDS011;60843;52.062;4.508;2023-05-09T04:41:29;20.23;;;11.13;;
72728;SDS011;60843;52.062;4.508;2023-05-09T04:43:54;21.38;;;10.75;;
72728;SDS011;60843;52.062;4.508;2023-05-09T04:46:20;21.70;;;11.20;;
72728;SDS011;60843;52.062;4.508;2023-05-09T04:48:46;22.65;;;12.15;;
72728;SDS011;60843;52.062;4.508;2023-05-09T04:51:11;24.43;;;12.53;;
72728;SDS011;60843;52.062;4.508;2023-05-09T04:53:37;25.90;;;12.23;;
72728;SDS011;60843;52.062;4.508;2023-05-09T04:56:02;30.00;;;13.50;;
72728;SDS011;60843;52.062;4.508;2023-05-09T04:58:27;29.53;;;12.93;;
72728;SDS011;60843;52.062;4.508;2023-05-09T05:00:53;28.87;;;13.93;;
72728;SDS011;60843;52.062;4.508;2023-05-09T05:03:18;27.17;;;13.37;;
72728;SDS011;60843;52.062;4.508;2023-05-09T05:05:44;25.63;;;13.17;;
72728;SDS011;60843;52.062;4.508;2023-05-09T05:08:09;25.03;;;13.53;;
72728;SDS011;60843;52.062;4.508;2023-05-09T05:10:34;30.17;;;13.15;;
72728;SDS011;60843;52.062;4.508;2023-05-09T05:13:00;23.95;;;13.52;;
72728;SDS011;60843;52.062;4.508;2023-05-09T05:15:25;25.35;;;12.68;;
72728;SDS011;60843;52.062;4.508;2023-05-09T05:17:51;23.37;;;10.97;;
72728;SDS011;60843;52.062;4.508;2023-05-09T05:20:16;24.45;;;11.52;;
72728;SDS011;60843;52.062;4.508;2023-05-09T05:22:42;28.52;;;12.13;;
72728;SDS011;60843;52.062;4.508;2023-05-09T05:25:08;20.55;;;11.05;;
72728;SDS011;60843;52.062;4.508;2023-05-09T05:27:33;23.63;;;11.90;;
72728;SDS011;60843;52.062;4.508;2023-05-09T05:29:59;24.10;;;11.38;;
72728;SDS011;60843;52.062;4.508;2023-05-09T05:32:24;25.92;;;11.55;;
72728;SDS011;60843;52.062;4.508;2023-05-09T05:34:50;19.97;;;10.73;;
72728;SDS011;60843;52.062;4.508;2023-05-09T05:37:15;20.92;;;11.15;;
72728;SDS011;60843;52.062;4.508;2023-05-09T05:39:40;22.00;;;9.97;;
72728;SDS011;60843;52.062;4.508;2023-05-09T05:42:06;21.97;;;10.47;;
72728;SDS011;60843;52.062;4.508;2023-05-09T05:44:31;19.33;;;9.63;;
72728;SDS011;60843;52.062;4.508;2023-05-09T05:46:56;21.13;;;9.67;;
72728;SDS011;60843;52.062;4.508;2023-05-09T05:49:22;19.67;;;10.93;;
72728;SDS011;60843;52.062;4.508;2023-05-09T05:51:49;22.75;;;10.60;;
72728;SDS011;60843;52.062;4.508;2023-05-09T05:54:14;24.30;;;12.10;;
72728;SDS011;60843;52.062;4.508;2023-05-09T05:56:40;21.50;;;11.13;;
72728;SDS011;60843;52.062;4.508;2023-05-09T05:59:05;27.93;;;12.03;;
72728;SDS011;60843;52.062;4.508;2023-05-09T06:01:30;21.63;;;10.15;;
72728;SDS011;60843;52.062;4.508;2023-05-09T06:03:56;21.40;;;10.77;;
72728;SDS011;60843;52.062;4.508;2023-05-09T06:06:21;18.13;;;10.57;;
72728;SDS011;60843;52.062;4.508;2023-05-09T06:08:47;22.77;;;11.77;;
72728;SDS011;60843;52.062;4.508;2023-05-09T06:11:16;22.92;;;10.73;;
72728;SDS011;60843;52.062;4.508;2023-05-09T06:13:41;20.95;;;11.55;;
72728;SDS011;60843;52.062;4.508;2023-05-09T06:16:07;23.93;;;11.30;;
72728;SDS011;60843;52.062;4.508;2023-05-09T06:18:33;19.38;;;9.82;;
72728;SDS011;60843;52.062;4.508;2023-05-09T06:20:59;22.30;;;9.60;;
72728;SDS011;60843;52.062;4.508;2023-05-09T06:23:25;15.77;;;8.07;;
72728;SDS011;60843;52.062;4.508;2023-05-09T06:25:50;25.90;;;10.17;;
72728;SDS011;60843;52.062;4.508;2023-05-09T06:28:15;16.30;;;9.20;;
72728;SDS011;60843;52.062;4.508;2023-05-09T06:30:41;15.87;;;8.13;;
72728;SDS011;60843;52.062;4.508;2023-05-09T06:33:06;13.87;;;7.90;;
72728;SDS011;60843;52.062;4.508;2023-05-09T06:35:31;13.53;;;7.03;;
72728;SDS011;60843;52.062;4.508;2023-05-09T06:37:57;14.37;;;7.30;;
72728;SDS011;60843;52.062;4.508;2023-05-09T06:40:22;15.38;;;7.03;;
72728;SDS011;60843;52.062;4.508;2023-05-09T06:42:47;16.17;;;7.90;;
72728;SDS011;60843;52.062;4.508;2023-05-09T06:45:13;19.07;;;6.73;;
72728;SDS011;60843;52.062;4.508;2023-05-09T06:47:38;14.10;;;7.03;;
72728;SDS011;60843;52.062;4.508;2023-05-09T06:50:03;13.40;;;7.23;;
72728;SDS011;60843;52.062;4.508;2023-05-09T06:52:29;13.82;;;7.35;;
72728;SDS011;60843;52.062;4.508;2023-05-09T06:54:55;13.80;;;7.75;;
72728;SDS011;60843;52.062;4.508;2023-05-09T06:57:20;12.57;;;6.67;;
72728;SDS011;60843;52.062;4.508;2023-05-09T06:59:45;16.83;;;8.07;;
72728;SDS011;60843;52.062;4.508;2023-05-09T07:02:11;13.50;;;7.60;;
72728;SDS011;60843;52.062;4.508;2023-05-09T07:04:36;13.15;;;7.28;;
72728;SDS011;60843;52.062;4.508;2023-05-09T07:07:01;17.73;;;8.23;;
72728;SDS011;60843;52.062;4.508;2023-05-09T07:09:27;13.48;;;7.05;;
72728;SDS011;60843;52.062;4.508;2023-05-09T07:11:53;11.70;;;7.03;;
72728;SDS011;60843;52.062;4.508;2023-05-09T07:14:19;10.50;;;5.60;;
72728;SDS011;60843;52.062;4.508;2023-05-09T07:16:44;10.73;;;5.47;;
72728;SDS011;60843;52.062;4.508;2023-05-09T07:19:10;9.13;;;4.82;;
72728;SDS011;60843;52.062;4.508;2023-05-09T07:21:36;9.23;;;4.82;;
72728;SDS011;60843;52.062;4.508;2023-05-09T07:24:01;10.97;;;5.17;;
72728;SDS011;60843;52.062;4.508;2023-05-09T07:26:26;10.65;;;5.97;;
72728;SDS011;60843;52.062;4.508;2023-05-09T07:28:52;11.63;;;5.07;;
72728;SDS011;60843;52.062;4.508;2023-05-09T07:31:17;12.48;;;5.53;;
72728;SDS011;60843;52.062;4.508;2023-05-09T07:33:43;10.38;;;5.20;;
72728;SDS011;60843;52.062;4.508;2023-05-09T07:36:08;11.55;;;5.53;;
72728;SDS011;60843;52.062;4.508;2023-05-09T07:38:37;10.82;;;5.35;;
72728;SDS011;60843;52.062;4.508;2023-05-09T07:41:03;9.27;;;5.28;;
72728;SDS011;60843;52.062;4.508;2023-05-09T07:43:28;10.13;;;5.68;;
72728;SDS011;60843;52.062;4.508;2023-05-09T07:45:54;10.20;;;5.87;;
72728;SDS011;60843;52.062;4.508;2023-05-09T07:48:19;9.45;;;5.72;;
72728;SDS011;60843;52.062;4.508;2023-05-09T07:50:45;11.43;;;6.00;;
72728;SDS011;60843;52.062;4.508;2023-05-09T07:53:10;14.33;;;7.27;;
72728;SDS011;60843;52.062;4.508;2023-05-09T07:55:35;14.50;;;7.40;;
72728;SDS011;60843;52.062;4.508;2023-05-09T07:58:01;15.07;;;8.07;;
72728;SDS011;60843;52.062;4.508;2023-05-09T08:00:26;19.60;;;8.18;;
72728;SDS011;60843;52.062;4.508;2023-05-09T08:02:52;12.77;;;7.67;;
72728;SDS011;60843;52.062;4.508;2023-05-09T08:05:17;15.45;;;8.35;;
72728;SDS011;60843;52.062;4.508;2023-05-09T08:07:43;15.57;;;8.73;;
72728;SDS011;60843;52.062;4.508;2023-05-09T08:10:09;14.27;;;7.78;;
72728;SDS011;60843;52.062;4.508;2023-05-09T08:12:35;16.20;;;8.48;;
72728;SDS011;60843;52.062;4.508;2023-05-09T08:15:00;13.83;;;7.20;;
72728;SDS011;60843;52.062;4.508;2023-05-09T08:17:26;15.18;;;8.00;;
72728;SDS011;60843;52.062;4.508;2023-05-09T08:19:51;18.90;;;9.93;;
72728;SDS011;60843;52.062;4.508;2023-05-09T08:22:17;16.97;;;8.37;;
72728;SDS011;60843;52.062;4.508;2023-05-09T08:24:43;17.45;;;9.18;;
72728;SDS011;60843;52.062;4.508;2023-05-09T08:27:12;15.85;;;8.00;;
72728;SDS011;60843;52.062;4.508;2023-05-09T08:29:38;17.75;;;9.20;;
72728;SDS011;60843;52.062;4.508;2023-05-09T08:32:04;14.43;;;8.27;;
72728;SDS011;60843;52.062;4.508;2023-05-09T08:34:29;15.50;;;8.07;;
72728;SDS011;60843;52.062;4.508;2023-05-09T08:37:01;9.65;;;6.25;;
72728;SDS011;60843;52.062;4.508;2023-05-09T08:39:28;11.85;;;7.43;;
72728;SDS011;60843;52.062;4.508;2023-05-09T08:41:57;15.98;;;8.43;;
72728;SDS011;60843;52.062;4.508;2023-05-09T08:44:23;20.83;;;7.45;;
72728;SDS011;60843;52.062;4.508;2023-05-09T08:46:50;12.98;;;7.07;;
72728;SDS011;60843;52.062;4.508;2023-05-09T08:49:16;13.75;;;8.23;;
72728;SDS011;60843;52.062;4.508;2023-05-09T08:51:43;11.70;;;7.03;;
72728;SDS011;60843;52.062;4.508;2023-05-09T08:54:09;12.10;;;7.55;;
72728;SDS011;60843;52.062;4.508;2023-05-09T08:56:35;12.20;;;8.13;;
72728;SDS011;60843;52.062;4.508;2023-05-09T08:59:00;12.20;;;7.88;;
72728;SDS011;60843;52.062;4.508;2023-05-09T09:01:26;16.50;;;8.83;;
72728;SDS011;60843;52.062;4.508;2023-05-09T09:03:51;15.38;;;8.82;;
72728;SDS011;60843;52.062;4.508;2023-05-09T09:06:18;17.02;;;10.30;;
72728;SDS011;60843;52.062;4.508;2023-05-09T09:08:43;18.00;;;10.25;;
72728;SDS011;60843;52.062;4.508;2023-05-09T09:11:11;17.02;;;8.98;;
72728;SDS011;60843;52.062;4.508;2023-05-09T09:13:37;16.95;;;10.40;;
72728;SDS011;60843;52.062;4.508;2023-05-09T09:16:04;17.80;;;10.50;;
72728;SDS011;60843;52.062;4.508;2023-05-09T09:18:33;15.68;;;8.60;;
72728;SDS011;60843;52.062;4.508;2023-05-09T09:21:01;16.65;;;9.55;;
72728;SDS011;60843;52.062;4.508;2023-05-09T09:23:30;19.15;;;10.60;;
72728;SDS011;60843;52.062;4.508;2023-05-09T09:25:57;16.98;;;10.00;;
72728;SDS011;60843;52.062;4.508;2023-05-09T09:28:26;17.67;;;10.35;;
72728;SDS011;60843;52.062;4.508;2023-05-09T09:30:52;17.17;;;9.63;;
72728;SDS011;60843;52.062;4.508;2023-05-09T09:33:18;18.00;;;10.60;;
72728;SDS011;60843;52.062;4.508;2023-05-09T09:35:46;15.10;;;9.75;;
72728;SDS011;60843;52.062;4.508;2023-05-09T09:38:12;20.25;;;9.43;;
72728;SDS011;60843;52.062;4.508;2023-05-09T09:40:37;19.27;;;10.90;;
72728;SDS011;60843;52.062;4.508;2023-05-09T09:43:05;19.08;;;10.52;;
72728;SDS011;60843;52.062;4.508;2023-05-09T09:45:31;16.45;;;11.18;;
72728;SDS011;60843;52.062;4.508;2023-05-09T09:47:56;15.65;;;10.05;;
72728;SDS011;60843;52.062;4.508;2023-05-09T09:50:22;16.10;;;10.53;;
72728;SDS011;60843;52.062;4.508;2023-05-09T09:55:14;15.40;;;9.68;;
72728;SDS011;60843;52.062;4.508;2023-05-09T09:57:40;14.57;;;9.95;;
72728;SDS011;60843;52.062;4.508;2023-05-09T10:00:09;17.30;;;10.25;;
72728;SDS011;60843;52.062;4.508;2023-05-09T10:02:45;17.63;;;10.75;;
72728;SDS011;60843;52.062;4.508;2023-05-09T10:05:21;17.98;;;11.45;;
72728;SDS011;60843;52.062;4.508;2023-05-09T10:08:02;17.60;;;10.38;;
72728;SDS011;60843;52.062;4.508;2023-05-09T10:10:29;16.38;;;10.23;;
72728;SDS011;60843;52.062;4.508;2023-05-09T10:12:57;15.68;;;10.32;;
72728;SDS011;60843;52.062;4.508;2023-05-09T10:15:23;17.15;;;10.32;;
72728;SDS011;60843;52.062;4.508;2023-05-09T10:17:53;15.88;;;10.55;;
72728;SDS011;60843;52.062;4.508;2023-05-09T10:20:20;15.88;;;10.15;;
72728;SDS011;60843;52.062;4.508;2023-05-09T10:22:46;15.82;;;10.43;;
72728;SDS011;60843;52.062;4.508;2023-05-09T10:25:19;17.33;;;10.20;;
72728;SDS011;60843;52.062;4.508;2023-05-09T10:27:46;17.25;;;9.38;;
72728;SDS011;60843;52.062;4.508;2023-05-09T10:30:13;16.73;;;9.68;;
72728;SDS011;60843;52.062;4.508;2023-05-09T10:32:51;15.30;;;9.55;;
72728;SDS011;60843;52.062;4.508;2023-05-09T10:35:22;13.88;;;9.73;;
72728;SDS011;60843;52.062;4.508;2023-05-09T10:37:50;15.85;;;10.20;;
72728;SDS011;60843;52.062;4.508;2023-05-09T10:40:17;14.43;;;9.32;;
72728;SDS011;60843;52.062;4.508;2023-05-09T10:42:43;13.40;;;9.85;;
72728;SDS011;60843;52.062;4.508;2023-05-09T10:45:10;13.35;;;8.57;;
72728;SDS011;60843;52.062;4.508;2023-05-09T10:47:36;13.63;;;9.30;;
72728;SDS011;60843;52.062;4.508;2023-05-09T10:50:03;12.77;;;8.55;;
72728;SDS011;60843;52.062;4.508;2023-05-09T10:52:32;14.00;;;8.80;;
72728;SDS011;60843;52.062;4.508;2023-05-09T10:55:00;17.42;;;8.90;;
72728;SDS011;60843;52.062;4.508;2023-05-09T10:57:28;13.90;;;8.52;;
72728;SDS011;60843;52.062;4.508;2023-05-09T10:59:55;19.25;;;10.30;;
72728;SDS011;60843;52.062;4.508;2023-05-09T11:02:21;15.02;;;9.50;;
72728;SDS011;60843;52.062;4.508;2023-05-09T11:07:38;14.05;;;9.15;;
72728;SDS011;60843;52.062;4.508;2023-05-09T11:10:07;15.05;;;9.20;;
72728;SDS011;60843;52.062;4.508;2023-05-09T11:12:34;14.32;;;9.13;;
72728;SDS011;60843;52.062;4.508;2023-05-09T11:15:17;16.85;;;10.23;;
72728;SDS011;60843;52.062;4.508;2023-05-09T11:17:43;13.60;;;9.13;;
72728;SDS011;60843;52.062;4.508;2023-05-09T11:20:08;17.10;;;9.27;;
72728;SDS011;60843;52.062;4.508;2023-05-09T11:25:04;12.52;;;9.23;;
72728;SDS011;60843;52.062;4.508;2023-05-09T11:27:41;12.90;;;7.43;;
72728;SDS011;60843;52.062;4.508;2023-05-09T11:30:09;9.32;;;7.03;;
72728;SDS011;60843;52.062;4.508;2023-05-09T11:32:40;9.27;;;7.05;;
72728;SDS011;60843;52.062;4.508;2023-05-09T11:35:15;10.48;;;7.28;;
72728;SDS011;60843;52.062;4.508;2023-05-09T11:37:47;9.38;;;7.22;;
72728;SDS011;60843;52.062;4.508;2023-05-09T11:40:13;10.25;;;6.75;;
72728;SDS011;60843;52.062;4.508;2023-05-09T11:42:43;9.93;;;6.25;;
72728;SDS011;60843;52.062;4.508;2023-05-09T11:45:11;10.15;;;7.40;;
72728;SDS011;60843;52.062;4.508;2023-05-09T11:47:37;9.75;;;7.22;;
72728;SDS011;60843;52.062;4.508;2023-05-09T11:50:10;8.73;;;6.43;;
72728;SDS011;60843;52.062;4.508;2023-05-09T11:52:37;9.32;;;6.13;;
72728;SDS011;60843;52.062;4.508;2023-05-09T11:55:10;7.68;;;5.72;;
72728;SDS011;60843;52.062;4.508;2023-05-09T11:57:43;12.02;;;5.50;;
72728;SDS011;60843;52.062;4.508;2023-05-09T12:00:09;6.82;;;4.05;;
72728;SDS011;60843;52.062;4.508;2023-05-09T12:02:35;7.68;;;4.82;;
72728;SDS011;60843;52.062;4.508;2023-05-09T12:07:37;6.55;;;4.28;;
72728;SDS011;60843;52.062;4.508;2023-05-09T12:10:07;6.45;;;3.85;;
72728;SDS011;60843;52.062;4.508;2023-05-09T12:12:33;5.15;;;3.75;;
72728;SDS011;60843;52.062;4.508;2023-05-09T12:15:06;7.57;;;4.38;;
72728;SDS011;60843;52.062;4.508;2023-05-09T12:17:33;6.90;;;4.53;;
72728;SDS011;60843;52.062;4.508;2023-05-09T12:19:59;6.55;;;4.60;;
72728;SDS011;60843;52.062;4.508;2023-05-09T12:22:25;7.38;;;4.25;;
72728;SDS011;60843;52.062;4.508;2023-05-09T12:24:51;5.15;;;3.63;;
72728;SDS011;60843;52.062;4.508;2023-05-09T12:27:16;7.50;;;3.70;;
72728;SDS011;60843;52.062;4.508;2023-05-09T12:29:42;7.55;;;3.03;;
72728;SDS011;60843;52.062;4.508;2023-05-09T12:32:10;3.80;;;2.50;;
72728;SDS011;60843;52.062;4.508;2023-05-09T12:34:36;5.75;;;3.25;;
72728;SDS011;60843;52.062;4.508;2023-05-09T12:37:02;5.57;;;2.83;;
72728;SDS011;60843;52.062;4.508;2023-05-09T12:39:28;4.78;;;2.72;;
72728;SDS011;60843;52.062;4.508;2023-05-09T12:41:55;5.90;;;2.72;;
72728;SDS011;60843;52.062;4.508;2023-05-09T12:44:24;3.45;;;2.92;;
72728;SDS011;60843;52.062;4.508;2023-05-09T12:47:02;5.53;;;3.13;;
72728;SDS011;60843;52.062;4.508;2023-05-09T12:49:29;5.32;;;3.00;;
72728;SDS011;60843;52.062;4.508;2023-05-09T12:51:56;4.78;;;2.75;;
72728;SDS011;60843;52.062;4.508;2023-05-09T12:54:23;5.05;;;3.42;;
72728;SDS011;60843;52.062;4.508;2023-05-09T12:56:49;5.65;;;3.15;;
72728;SDS011;60843;52.062;4.508;2023-05-09T12:59:27;6.60;;;3.75;;
72728;SDS011;60843;52.062;4.508;2023-05-09T13:01:56;5.53;;;3.70;;
72728;SDS011;60843;52.062;4.508;2023-05-09T13:04:23;6.72;;;4.43;;
72728;SDS011;60843;52.062;4.508;2023-05-09T13:06:50;6.50;;;3.45;;
72728;SDS011;60843;52.062;4.508;2023-05-09T13:11:43;6.33;;;3.73;;
72728;SDS011;60843;52.062;4.508;2023-05-09T13:14:10;6.35;;;4.63;;
72728;SDS011;60843;52.062;4.508;2023-05-09T13:16:35;6.85;;;4.60;;
72728;SDS011;60843;52.062;4.508;2023-05-09T13:19:01;6.10;;;4.23;;
72728;SDS011;60843;52.062;4.508;2023-05-09T13:21:26;6.13;;;4.40;;
72728;SDS011;60843;52.062;4.508;2023-05-09T13:23:51;7.97;;;4.70;;
72728;SDS011;60843;52.062;4.508;2023-05-09T13:26:17;10.13;;;4.70;;
72728;SDS011;60843;52.062;4.508;2023-05-09T13:28:42;7.67;;;4.13;;
72728;SDS011;60843;52.062;4.508;2023-05-09T13:31:07;7.93;;;5.00;;
72728;SDS011;60843;52.062;4.508;2023-05-09T13:33:33;9.20;;;4.77;;
72728;SDS011;60843;52.062;4.508;2023-05-09T13:35:59;6.97;;;4.47;;
72728;SDS011;60843;52.062;4.508;2023-05-09T13:38:24;8.50;;;4.30;;
72728;SDS011;60843;52.062;4.508;2023-05-09T13:40:50;6.93;;;4.55;;
72728;SDS011;60843;52.062;4.508;2023-05-09T13:43:16;9.40;;;4.13;;
72728;SDS011;60843;52.062;4.508;2023-05-09T13:45:41;7.80;;;4.07;;
72728;SDS011;60843;52.062;4.508;2023-05-09T13:48:06;5.80;;;4.23;;
72728;SDS011;60843;52.062;4.508;2023-05-09T13:50:32;7.03;;;4.55;;
72728;SDS011;60843;52.062;4.508;2023-05-09T13:52:58;6.78;;;4.50;;
72728;SDS011;60843;52.062;4.508;2023-05-09T13:55:23;7.70;;;4.30;;
72728;SDS011;60843;52.062;4.508;2023-05-09T13:57:50;6.90;;;4.20;;
72728;SDS011;60843;52.062;4.508;2023-05-09T14:00:15;6.95;;;4.10;;
72728;SDS011;60843;52.062;4.508;2023-05-09T14:02:42;6.47;;;4.70;;
72728;SDS011;60843;52.062;4.508;2023-05-09T14:05:08;7.10;;;4.63;;
72728;SDS011;60843;52.062;4.508;2023-05-09T14:07:33;7.97;;;4.88;;
72728;SDS011;60843;52.062;4.508;2023-05-09T14:09:59;7.18;;;4.47;;
72728;SDS011;60843;52.062;4.508;2023-05-09T14:12:25;6.25;;;4.20;;
72728;SDS011;60843;52.062;4.508;2023-05-09T14:14:51;6.68;;;4.82;;
72728;SDS011;60843;52.062;4.508;2023-05-09T14:17:17;6.93;;;3.60;;
72728;SDS011;60843;52.062;4.508;2023-05-09T14:19:42;8.87;;;5.50;;
72728;SDS011;60843;52.062;4.508;2023-05-09T14:22:07;8.50;;;5.07;;
72728;SDS011;60843;52.062;4.508;2023-05-09T14:24:33;7.97;;;5.50;;
72728;SDS011;60843;52.062;4.508;2023-05-09T14:27:00;9.27;;;6.10;;
72728;SDS011;60843;52.062;4.508;2023-05-09T14:29:25;8.18;;;5.80;;
72728;SDS011;60843;52.062;4.508;2023-05-09T14:31:51;6.95;;;5.18;;
72728;SDS011;60843;52.062;4.508;2023-05-09T14:34:16;9.53;;;5.40;;
72728;SDS011;60843;52.062;4.508;2023-05-09T14:36:41;8.03;;;5.43;;
72728;SDS011;60843;52.062;4.508;2023-05-09T14:39:07;8.70;;;5.93;;
72728;SDS011;60843;52.062;4.508;2023-05-09T14:41:33;9.20;;;6.47;;
72728;SDS011;60843;52.062;4.508;2023-05-09T14:43:58;6.95;;;5.38;;
72728;SDS011;60843;52.062;4.508;2023-05-09T14:46:24;9.17;;;5.90;;
72728;SDS011;60843;52.062;4.508;2023-05-09T14:48:50;11.25;;;6.40;;
72728;SDS011;60843;52.062;4.508;2023-05-09T14:51:17;12.05;;;8.15;;
72728;SDS011;60843;52.062;4.508;2023-05-09T14:53:42;10.68;;;7.38;;
72728;SDS011;60843;52.062;4.508;2023-05-09T14:56:08;11.43;;;7.43;;